North Walpole, New Hampshire
Current Conditions -  °F | °C
As of 7:54 AM on Thursday 30 Oct 2014 (Local Time) from KVSF Reporting Station
Overcast Overcast  
Wind Chill: 37°   Ceiling: 7500
Heat Index: 37°   Visibility: 9mi
Dew Point: 37°   Wind: 0mph
Humidity: 100%   Direction: NA
Pressure: 29.93"   Gusts: NA
Location:  43.14°N, 72.45°W
Report Text: KVSF 301154Z AUTO 00000KT 9SM OVC075 03/03 A2993 RMK AO2 SLP139 70006 T00280028 10028 20017 53013
Loading
Personal Weather Stations






























Interactive Weather Map
Tropical Storm Tracking
New forecast layout! Learn more

10-Day Weather Forecast

Advertisements
Track Severe Weather on mobile